sensor_id;sensor_type;location;lat;lon;timestamp;P1;durP1;ratioP1;P2;durP2;ratioP2
19543;SDS011;9917;51.256;7.152;2023-02-15T00:01:04;31.40;;;15.90;;
19543;SDS011;9917;51.256;7.152;2023-02-15T00:03:30;28.07;;;15.47;;
19543;SDS011;9917;51.256;7.152;2023-02-15T00:05:56;31.33;;;15.40;;
19543;SDS011;9917;51.256;7.152;2023-02-15T00:08:22;27.17;;;15.70;;
19543;SDS011;9917;51.256;7.152;2023-02-15T00:10:49;27.33;;;15.53;;
19543;SDS011;9917;51.256;7.152;2023-02-15T00:13:15;28.50;;;14.97;;
19543;SDS011;9917;51.256;7.152;2023-02-15T00:15:41;30.03;;;15.73;;
19543;SDS011;9917;51.256;7.152;2023-02-15T00:18:07;30.43;;;15.90;;
19543;SDS011;9917;51.256;7.152;2023-02-15T00:20:33;28.33;;;15.53;;
19543;SDS011;9917;51.256;7.152;2023-02-15T00:22:59;31.10;;;16.03;;
19543;SDS011;9917;51.256;7.152;2023-02-15T00:25:25;33.17;;;17.13;;
19543;SDS011;9917;51.256;7.152;2023-02-15T00:27:52;32.27;;;16.57;;
19543;SDS011;9917;51.256;7.152;2023-02-15T00:30:18;29.90;;;16.07;;
19543;SDS011;9917;51.256;7.152;2023-02-15T00:32:45;33.03;;;16.30;;
19543;SDS011;9917;51.256;7.152;2023-02-15T00:35:12;31.20;;;16.47;;
19543;SDS011;9917;51.256;7.152;2023-02-15T00:37:38;34.57;;;15.60;;
19543;SDS011;9917;51.256;7.152;2023-02-15T00:40:05;35.40;;;15.77;;
19543;SDS011;9917;51.256;7.152;2023-02-15T00:42:31;28.63;;;16.80;;
19543;SDS011;9917;51.256;7.152;2023-02-15T00:44:59;28.70;;;15.40;;
19543;SDS011;9917;51.256;7.152;2023-02-15T00:47:24;31.57;;;15.83;;
19543;SDS011;9917;51.256;7.152;2023-02-15T00:49:50;30.67;;;16.40;;
19543;SDS011;9917;51.256;7.152;2023-02-15T00:52:18;29.30;;;15.77;;
19543;SDS011;9917;51.256;7.152;2023-02-15T00:54:44;32.27;;;15.63;;
19543;SDS011;9917;51.256;7.152;2023-02-15T00:57:10;35.13;;;17.40;;
19543;SDS011;9917;51.256;7.152;2023-02-15T00:59:36;31.60;;;16.40;;
19543;SDS011;9917;51.256;7.152;2023-02-15T01:02:03;32.00;;;16.13;;
19543;SDS011;9917;51.256;7.152;2023-02-15T01:04:28;33.33;;;16.43;;
19543;SDS011;9917;51.256;7.152;2023-02-15T01:06:54;30.67;;;16.33;;
19543;SDS011;9917;51.256;7.152;2023-02-15T01:09:20;33.53;;;17.27;;
19543;SDS011;9917;51.256;7.152;2023-02-15T01:11:46;30.17;;;16.80;;
19543;SDS011;9917;51.256;7.152;2023-02-15T01:14:12;36.30;;;16.17;;
19543;SDS011;9917;51.256;7.152;2023-02-15T01:16:38;33.23;;;16.97;;
19543;SDS011;9917;51.256;7.152;2023-02-15T01:19:05;31.10;;;16.60;;
19543;SDS011;9917;51.256;7.152;2023-02-15T01:21:31;33.03;;;17.33;;
19543;SDS011;9917;51.256;7.152;2023-02-15T01:23:57;29.87;;;16.37;;
19543;SDS011;9917;51.256;7.152;2023-02-15T01:26:23;30.13;;;16.13;;
19543;SDS011;9917;51.256;7.152;2023-02-15T01:28:49;31.00;;;16.83;;
19543;SDS011;9917;51.256;7.152;2023-02-15T01:31:15;31.97;;;16.70;;
19543;SDS011;9917;51.256;7.152;2023-02-15T01:33:43;29.63;;;16.00;;
19543;SDS011;9917;51.256;7.152;2023-02-15T01:36:10;33.53;;;17.60;;
19543;SDS011;9917;51.256;7.152;2023-02-15T01:38:36;30.30;;;16.60;;
19543;SDS011;9917;51.256;7.152;2023-02-15T01:41:02;36.03;;;17.40;;
19543;SDS011;9917;51.256;7.152;2023-02-15T01:43:38;33.23;;;16.77;;
19543;SDS011;9917;51.256;7.152;2023-02-15T01:46:04;31.10;;;16.43;;
19543;SDS011;9917;51.256;7.152;2023-02-15T01:48:32;30.53;;;16.77;;
19543;SDS011;9917;51.256;7.152;2023-02-15T01:50:59;32.50;;;16.93;;
19543;SDS011;9917;51.256;7.152;2023-02-15T01:53:29;31.83;;;16.37;;
19543;SDS011;9917;51.256;7.152;2023-02-15T01:55:57;31.50;;;16.93;;
19543;SDS011;9917;51.256;7.152;2023-02-15T01:58:27;31.83;;;15.93;;
19543;SDS011;9917;51.256;7.152;2023-02-15T02:00:54;33.43;;;16.77;;
19543;SDS011;9917;51.256;7.152;2023-02-15T02:03:24;35.90;;;18.00;;
19543;SDS011;9917;51.256;7.152;2023-02-15T02:05:55;31.03;;;16.27;;
19543;SDS011;9917;51.256;7.152;2023-02-15T02:08:21;33.00;;;16.83;;
19543;SDS011;9917;51.256;7.152;2023-02-15T02:10:49;33.13;;;16.70;;
19543;SDS011;9917;51.256;7.152;2023-02-15T02:13:14;31.20;;;16.90;;
19543;SDS011;9917;51.256;7.152;2023-02-15T02:15:42;30.97;;;16.13;;
19543;SDS011;9917;51.256;7.152;2023-02-15T02:18:17;31.80;;;16.23;;
19543;SDS011;9917;51.256;7.152;2023-02-15T02:21:02;29.67;;;16.13;;
19543;SDS011;9917;51.256;7.152;2023-02-15T02:23:58;32.43;;;16.20;;
19543;SDS011;9917;51.256;7.152;2023-02-15T02:32:52;29.97;;;16.20;;
19543;SDS011;9917;51.256;7.152;2023-02-15T02:35:27;31.40;;;15.73;;
19543;SDS011;9917;51.256;7.152;2023-02-15T02:38:00;30.70;;;16.00;;
19543;SDS011;9917;51.256;7.152;2023-02-15T02:40:36;30.30;;;16.80;;
19543;SDS011;9917;51.256;7.152;2023-02-15T02:43:15;33.83;;;16.10;;
19543;SDS011;9917;51.256;7.152;2023-02-15T02:45:47;37.63;;;17.17;;
19543;SDS011;9917;51.256;7.152;2023-02-15T02:48:19;35.43;;;17.10;;
19543;SDS011;9917;51.256;7.152;2023-02-15T02:50:49;32.67;;;17.07;;
19543;SDS011;9917;51.256;7.152;2023-02-15T02:53:15;32.17;;;16.30;;
19543;SDS011;9917;51.256;7.152;2023-02-15T02:55:41;32.03;;;16.93;;
19543;SDS011;9917;51.256;7.152;2023-02-15T02:58:10;33.93;;;17.30;;
19543;SDS011;9917;51.256;7.152;2023-02-15T03:00:40;36.27;;;17.73;;
19543;SDS011;9917;51.256;7.152;2023-02-15T03:03:12;37.03;;;17.53;;
19543;SDS011;9917;51.256;7.152;2023-02-15T03:05:47;29.40;;;15.87;;
19543;SDS011;9917;51.256;7.152;2023-02-15T03:08:16;32.17;;;16.30;;
19543;SDS011;9917;51.256;7.152;2023-02-15T03:10:44;36.07;;;17.43;;
19543;SDS011;9917;51.256;7.152;2023-02-15T03:13:10;30.90;;;16.57;;
19543;SDS011;9917;51.256;7.152;2023-02-15T03:15:36;42.03;;;16.77;;
19543;SDS011;9917;51.256;7.152;2023-02-15T03:18:04;34.27;;;17.57;;
19543;SDS011;9917;51.256;7.152;2023-02-15T03:20:32;30.80;;;15.70;;
19543;SDS011;9917;51.256;7.152;2023-02-15T03:23:03;33.03;;;16.37;;
19543;SDS011;9917;51.256;7.152;2023-02-15T03:25:32;32.83;;;16.77;;
19543;SDS011;9917;51.256;7.152;2023-02-15T03:28:00;30.80;;;16.57;;
19543;SDS011;9917;51.256;7.152;2023-02-15T03:30:28;33.83;;;16.73;;
19543;SDS011;9917;51.256;7.152;2023-02-15T03:32:56;40.27;;;18.73;;
19543;SDS011;9917;51.256;7.152;2023-02-15T03:35:25;31.97;;;16.53;;
19543;SDS011;9917;51.256;7.152;2023-02-15T03:37:58;32.67;;;17.40;;
19543;SDS011;9917;51.256;7.152;2023-02-15T03:40:29;34.17;;;17.07;;
19543;SDS011;9917;51.256;7.152;2023-02-15T03:43:00;33.07;;;17.30;;
19543;SDS011;9917;51.256;7.152;2023-02-15T03:45:32;36.67;;;17.53;;
19543;SDS011;9917;51.256;7.152;2023-02-15T03:48:00;37.43;;;17.67;;
19543;SDS011;9917;51.256;7.152;2023-02-15T03:50:28;33.33;;;17.37;;
19543;SDS011;9917;51.256;7.152;2023-02-15T03:52:56;30.60;;;16.37;;
19543;SDS011;9917;51.256;7.152;2023-02-15T03:55:24;33.63;;;17.70;;
19543;SDS011;9917;51.256;7.152;2023-02-15T03:57:51;31.50;;;16.73;;
19543;SDS011;9917;51.256;7.152;2023-02-15T04:00:18;31.73;;;16.70;;
19543;SDS011;9917;51.256;7.152;2023-02-15T04:02:55;35.97;;;17.53;;
19543;SDS011;9917;51.256;7.152;2023-02-15T04:05:34;34.37;;;17.07;;
19543;SDS011;9917;51.256;7.152;2023-02-15T04:08:00;31.20;;;16.43;;
19543;SDS011;9917;51.256;7.152;2023-02-15T04:10:26;34.77;;;17.90;;
19543;SDS011;9917;51.256;7.152;2023-02-15T04:12:53;34.27;;;17.10;;
19543;SDS011;9917;51.256;7.152;2023-02-15T04:15:19;34.57;;;17.30;;
19543;SDS011;9917;51.256;7.152;2023-02-15T04:17:45;32.60;;;16.40;;
19543;SDS011;9917;51.256;7.152;2023-02-15T04:20:10;33.93;;;17.80;;
19543;SDS011;9917;51.256;7.152;2023-02-15T04:22:36;34.10;;;17.43;;
19543;SDS011;9917;51.256;7.152;2023-02-15T04:25:02;40.53;;;19.40;;
19543;SDS011;9917;51.256;7.152;2023-02-15T04:27:28;32.67;;;17.23;;
19543;SDS011;9917;51.256;7.152;2023-02-15T04:29:56;33.13;;;17.07;;
19543;SDS011;9917;51.256;7.152;2023-02-15T04:32:21;37.50;;;17.63;;
19543;SDS011;9917;51.256;7.152;2023-02-15T04:34:47;36.87;;;18.53;;
19543;SDS011;9917;51.256;7.152;2023-02-15T04:37:13;33.63;;;17.57;;
19543;SDS011;9917;51.256;7.152;2023-02-15T04:39:39;39.67;;;18.07;;
19543;SDS011;9917;51.256;7.152;2023-02-15T04:42:05;32.97;;;17.07;;
19543;SDS011;9917;51.256;7.152;2023-02-15T04:44:31;35.20;;;17.93;;
19543;SDS011;9917;51.256;7.152;2023-02-15T04:46:59;34.53;;;17.57;;
19543;SDS011;9917;51.256;7.152;2023-02-15T04:49:24;33.03;;;17.63;;
19543;SDS011;9917;51.256;7.152;2023-02-15T04:51:50;37.80;;;18.00;;
19543;SDS011;9917;51.256;7.152;2023-02-15T04:54:16;35.20;;;18.70;;
19543;SDS011;9917;51.256;7.152;2023-02-15T04:56:42;37.50;;;18.53;;
19543;SDS011;9917;51.256;7.152;2023-02-15T04:59:09;37.63;;;17.60;;
19543;SDS011;9917;51.256;7.152;2023-02-15T05:01:35;35.20;;;17.73;;
19543;SDS011;9917;51.256;7.152;2023-02-15T05:04:02;36.07;;;17.17;;
19543;SDS011;9917;51.256;7.152;2023-02-15T05:06:28;36.67;;;18.17;;
19543;SDS011;9917;51.256;7.152;2023-02-15T05:08:54;36.90;;;18.17;;
19543;SDS011;9917;51.256;7.152;2023-02-15T05:11:20;33.77;;;17.53;;
19543;SDS011;9917;51.256;7.152;2023-02-15T05:13:46;37.03;;;18.37;;
19543;SDS011;9917;51.256;7.152;2023-02-15T05:16:12;42.30;;;18.60;;
19543;SDS011;9917;51.256;7.152;2023-02-15T05:18:38;42.50;;;18.13;;
19543;SDS011;9917;51.256;7.152;2023-02-15T05:21:05;37.20;;;17.27;;
19543;SDS011;9917;51.256;7.152;2023-02-15T05:23:31;38.00;;;17.77;;
19543;SDS011;9917;51.256;7.152;2023-02-15T05:25:57;34.07;;;17.27;;
19543;SDS011;9917;51.256;7.152;2023-02-15T05:28:26;38.50;;;18.37;;
19543;SDS011;9917;51.256;7.152;2023-02-15T05:30:57;35.90;;;16.83;;
19543;SDS011;9917;51.256;7.152;2023-02-15T05:33:27;35.10;;;18.13;;
19543;SDS011;9917;51.256;7.152;2023-02-15T05:35:55;35.70;;;18.27;;
19543;SDS011;9917;51.256;7.152;2023-02-15T05:38:25;38.03;;;18.53;;
19543;SDS011;9917;51.256;7.152;2023-02-15T05:40:50;40.13;;;19.73;;
19543;SDS011;9917;51.256;7.152;2023-02-15T05:43:16;40.17;;;19.27;;
19543;SDS011;9917;51.256;7.152;2023-02-15T05:45:44;34.47;;;18.00;;
19543;SDS011;9917;51.256;7.152;2023-02-15T05:48:10;38.90;;;19.30;;
19543;SDS011;9917;51.256;7.152;2023-02-15T05:50:36;40.60;;;19.10;;
19543;SDS011;9917;51.256;7.152;2023-02-15T05:53:02;41.67;;;19.07;;
19543;SDS011;9917;51.256;7.152;2023-02-15T05:55:29;38.63;;;19.53;;
19543;SDS011;9917;51.256;7.152;2023-02-15T05:57:55;34.17;;;17.80;;
19543;SDS011;9917;51.256;7.152;2023-02-15T06:00:21;38.37;;;18.60;;
19543;SDS011;9917;51.256;7.152;2023-02-15T06:02:47;38.40;;;19.60;;
19543;SDS011;9917;51.256;7.152;2023-02-15T06:05:13;36.33;;;18.40;;
19543;SDS011;9917;51.256;7.152;2023-02-15T06:07:39;36.47;;;19.23;;
19543;SDS011;9917;51.256;7.152;2023-02-15T06:10:05;38.60;;;18.63;;
19543;SDS011;9917;51.256;7.152;2023-02-15T06:12:33;38.60;;;19.73;;
19543;SDS011;9917;51.256;7.152;2023-02-15T06:14:59;38.33;;;19.40;;
19543;SDS011;9917;51.256;7.152;2023-02-15T06:17:25;37.10;;;18.00;;
19543;SDS011;9917;51.256;7.152;2023-02-15T06:19:51;38.83;;;18.83;;
19543;SDS011;9917;51.256;7.152;2023-02-15T06:22:16;35.97;;;18.67;;
19543;SDS011;9917;51.256;7.152;2023-02-15T06:24:42;37.07;;;18.73;;
19543;SDS011;9917;51.256;7.152;2023-02-15T06:27:08;38.57;;;18.40;;
19543;SDS011;9917;51.256;7.152;2023-02-15T06:29:36;37.50;;;18.83;;
19543;SDS011;9917;51.256;7.152;2023-02-15T06:32:01;35.23;;;18.27;;
19543;SDS011;9917;51.256;7.152;2023-02-15T06:34:27;47.37;;;21.07;;
19543;SDS011;9917;51.256;7.152;2023-02-15T06:36:53;35.37;;;17.87;;
19543;SDS011;9917;51.256;7.152;2023-02-15T06:39:19;40.63;;;19.37;;
19543;SDS011;9917;51.256;7.152;2023-02-15T06:41:45;39.47;;;18.50;;
19543;SDS011;9917;51.256;7.152;2023-02-15T06:44:11;34.13;;;17.30;;
19543;SDS011;9917;51.256;7.152;2023-02-15T06:46:38;37.87;;;18.93;;
19543;SDS011;9917;51.256;7.152;2023-02-15T06:49:04;37.07;;;17.47;;
19543;SDS011;9917;51.256;7.152;2023-02-15T06:51:30;39.50;;;19.50;;
19543;SDS011;9917;51.256;7.152;2023-02-15T06:53:56;42.77;;;19.27;;
19543;SDS011;9917;51.256;7.152;2023-02-15T06:56:22;39.53;;;19.33;;
19543;SDS011;9917;51.256;7.152;2023-02-15T06:58:48;40.73;;;19.57;;
19543;SDS011;9917;51.256;7.152;2023-02-15T07:01:14;37.53;;;19.10;;
19543;SDS011;9917;51.256;7.152;2023-02-15T07:03:42;36.50;;;18.17;;
19543;SDS011;9917;51.256;7.152;2023-02-15T07:06:07;40.80;;;18.97;;
19543;SDS011;9917;51.256;7.152;2023-02-15T07:08:33;40.77;;;19.93;;
19543;SDS011;9917;51.256;7.152;2023-02-15T07:10:59;42.40;;;19.53;;
19543;SDS011;9917;51.256;7.152;2023-02-15T07:13:25;42.97;;;19.10;;
19543;SDS011;9917;51.256;7.152;2023-02-15T07:15:51;38.67;;;19.83;;
19543;SDS011;9917;51.256;7.152;2023-02-15T07:18:17;39.10;;;18.90;;
19543;SDS011;9917;51.256;7.152;2023-02-15T07:20:44;37.97;;;18.27;;
19543;SDS011;9917;51.256;7.152;2023-02-15T07:23:11;45.87;;;20.27;;
19543;SDS011;9917;51.256;7.152;2023-02-15T07:25:37;44.80;;;20.70;;
19543;SDS011;9917;51.256;7.152;2023-02-15T07:28:03;39.20;;;19.87;;
19543;SDS011;9917;51.256;7.152;2023-02-15T07:30:29;38.90;;;19.67;;
19543;SDS011;9917;51.256;7.152;2023-02-15T07:32:55;37.60;;;19.73;;
19543;SDS011;9917;51.256;7.152;2023-02-15T07:35:21;38.70;;;18.17;;
19543;SDS011;9917;51.256;7.152;2023-02-15T07:37:48;40.60;;;18.00;;
19543;SDS011;9917;51.256;7.152;2023-02-15T07:40:14;36.90;;;18.70;;
19543;SDS011;9917;51.256;7.152;2023-02-15T07:42:40;37.20;;;18.93;;
19543;SDS011;9917;51.256;7.152;2023-02-15T07:45:06;37.77;;;18.33;;
19543;SDS011;9917;51.256;7.152;2023-02-15T07:47:34;35.20;;;17.40;;
19543;SDS011;9917;51.256;7.152;2023-02-15T07:50:00;34.63;;;16.93;;
19543;SDS011;9917;51.256;7.152;2023-02-15T07:52:26;35.33;;;17.43;;
19543;SDS011;9917;51.256;7.152;2023-02-15T07:54:53;28.37;;;15.10;;
19543;SDS011;9917;51.256;7.152;2023-02-15T07:57:19;35.97;;;16.47;;
19543;SDS011;9917;51.256;7.152;2023-02-15T07:59:45;31.50;;;15.77;;
19543;SDS011;9917;51.256;7.152;2023-02-15T08:02:11;29.10;;;15.73;;
19543;SDS011;9917;51.256;7.152;2023-02-15T08:04:37;36.83;;;16.23;;
19543;SDS011;9917;51.256;7.152;2023-02-15T08:07:03;32.65;;;15.45;;
19543;SDS011;9917;51.256;7.152;2023-02-15T08:09:29;30.70;;;15.35;;
19543;SDS011;9917;51.256;7.152;2023-02-15T08:11:56;31.63;;;15.32;;
19543;SDS011;9917;51.256;7.152;2023-02-15T08:14:22;27.85;;;14.98;;
19543;SDS011;9917;51.256;7.152;2023-02-15T08:16:48;32.50;;;15.10;;
19543;SDS011;9917;51.256;7.152;2023-02-15T08:19:16;29.73;;;15.15;;
19543;SDS011;9917;51.256;7.152;2023-02-15T08:21:44;29.27;;;14.82;;
19543;SDS011;9917;51.256;7.152;2023-02-15T08:24:11;32.13;;;15.73;;
19543;SDS011;9917;51.256;7.152;2023-02-15T08:26:38;28.80;;;14.77;;
19543;SDS011;9917;51.256;7.152;2023-02-15T08:29:06;26.45;;;13.70;;
19543;SDS011;9917;51.256;7.152;2023-02-15T08:31:33;23.20;;;13.20;;
19543;SDS011;9917;51.256;7.152;2023-02-15T08:33:59;23.92;;;14.23;;
19543;SDS011;9917;51.256;7.152;2023-02-15T08:36:27;27.33;;;14.55;;
19543;SDS011;9917;51.256;7.152;2023-02-15T08:38:53;24.05;;;13.55;;
19543;SDS011;9917;51.256;7.152;2023-02-15T08:41:20;24.20;;;13.98;;
19543;SDS011;9917;51.256;7.152;2023-02-15T08:43:47;25.67;;;13.70;;
19543;SDS011;9917;51.256;7.152;2023-02-15T08:46:15;24.52;;;14.85;;
19543;SDS011;9917;51.256;7.152;2023-02-15T08:48:41;26.08;;;14.25;;
19543;SDS011;9917;51.256;7.152;2023-02-15T08:51:08;23.30;;;12.98;;
19543;SDS011;9917;51.256;7.152;2023-02-15T08:53:35;25.77;;;13.98;;
19543;SDS011;9917;51.256;7.152;2023-02-15T08:56:01;25.90;;;13.65;;
19543;SDS011;9917;51.256;7.152;2023-02-15T08:58:27;25.42;;;13.77;;
19543;SDS011;9917;51.256;7.152;2023-02-15T09:00:53;23.25;;;13.93;;
19543;SDS011;9917;51.256;7.152;2023-02-15T09:03:21;22.27;;;12.68;;
19543;SDS011;9917;51.256;7.152;2023-02-15T09:05:47;24.90;;;13.35;;
19543;SDS011;9917;51.256;7.152;2023-02-15T09:08:12;27.25;;;13.73;;
19543;SDS011;9917;51.256;7.152;2023-02-15T09:10:38;23.23;;;13.13;;
19543;SDS011;9917;51.256;7.152;2023-02-15T09:13:06;25.10;;;13.18;;
19543;SDS011;9917;51.256;7.152;2023-02-15T09:15:31;21.52;;;12.65;;
19543;SDS011;9917;51.256;7.152;2023-02-15T09:17:57;21.17;;;12.10;;
19543;SDS011;9917;51.256;7.152;2023-02-15T09:20:24;20.00;;;12.40;;
19543;SDS011;9917;51.256;7.152;2023-02-15T09:22:51;19.80;;;11.13;;
19543;SDS011;9917;51.256;7.152;2023-02-15T09:25:16;21.42;;;11.93;;
19543;SDS011;9917;51.256;7.152;2023-02-15T09:27:42;20.48;;;12.15;;
19543;SDS011;9917;51.256;7.152;2023-02-15T09:30:09;21.63;;;12.80;;
19543;SDS011;9917;51.256;7.152;2023-02-15T09:32:35;20.00;;;11.90;;
19543;SDS011;9917;51.256;7.152;2023-02-15T09:35:01;18.95;;;11.55;;
19543;SDS011;9917;51.256;7.152;2023-02-15T09:37:29;18.88;;;11.48;;
19543;SDS011;9917;51.256;7.152;2023-02-15T09:39:55;21.65;;;11.40;;
19543;SDS011;9917;51.256;7.152;2023-02-15T09:42:37;20.52;;;12.10;;
19543;SDS011;9917;51.256;7.152;2023-02-15T09:45:39;19.25;;;10.48;;
19543;SDS011;9917;51.256;7.152;2023-02-15T09:48:24;15.10;;;9.27;;
19543;SDS011;9917;51.256;7.152;2023-02-15T09:51:35;17.50;;;9.85;;
19543;SDS011;9917;51.256;7.152;2023-02-15T09:54:22;16.58;;;9.30;;
19543;SDS011;9917;51.256;7.152;2023-02-15T09:57:03;19.10;;;9.43;;
19543;SDS011;9917;51.256;7.152;2023-02-15T09:59:38;16.20;;;8.10;;
19543;SDS011;9917;51.256;7.152;2023-02-15T10:02:13;12.90;;;7.75;;
19543;SDS011;9917;51.256;7.152;2023-02-15T10:04:52;13.13;;;8.18;;
19543;SDS011;9917;51.256;7.152;2023-02-15T10:07:38;14.35;;;8.25;;
19543;SDS011;9917;51.256;7.152;2023-02-15T10:10:21;12.95;;;7.70;;
19543;SDS011;9917;51.256;7.152;2023-02-15T10:12:54;13.68;;;8.48;;
19543;SDS011;9917;51.256;7.152;2023-02-15T10:15:37;14.55;;;7.95;;
19543;SDS011;9917;51.256;7.152;2023-02-15T10:18:17;14.57;;;7.60;;
19543;SDS011;9917;51.256;7.152;2023-02-15T10:20:56;14.35;;;8.07;;
19543;SDS011;9917;51.256;7.152;2023-02-15T10:23:34;14.52;;;8.40;;
19543;SDS011;9917;51.256;7.152;2023-02-15T10:26:11;13.93;;;7.57;;
19543;SDS011;9917;51.256;7.152;2023-02-15T10:28:42;12.10;;;7.28;;
19543;SDS011;9917;51.256;7.152;2023-02-15T10:31:16;16.02;;;7.53;;
19543;SDS011;9917;51.256;7.152;2023-02-15T10:33:47;11.07;;;7.25;;
19543;SDS011;9917;51.256;7.152;2023-02-15T10:36:19;12.57;;;7.43;;
19543;SDS011;9917;51.256;7.152;2023-02-15T10:38:57;14.48;;;7.47;;
19543;SDS011;9917;51.256;7.152;2023-02-15T10:41:33;12.05;;;6.97;;
19543;SDS011;9917;51.256;7.152;2023-02-15T10:44:07;10.93;;;6.80;;
19543;SDS011;9917;51.256;7.152;2023-02-15T10:47:00;14.77;;;6.85;;
19543;SDS011;9917;51.256;7.152;2023-02-15T10:49:43;10.10;;;6.25;;
19543;SDS011;9917;51.256;7.152;2023-02-15T10:52:21;11.00;;;6.70;;
19543;SDS011;9917;51.256;7.152;2023-02-15T10:55:02;13.02;;;7.15;;
19543;SDS011;9917;51.256;7.152;2023-02-15T10:57:36;11.30;;;6.72;;
19543;SDS011;9917;51.256;7.152;2023-02-15T11:00:09;10.60;;;6.30;;
19543;SDS011;9917;51.256;7.152;2023-02-15T11:02:48;13.60;;;7.80;;
19543;SDS011;9917;51.256;7.152;2023-02-15T11:05:25;12.20;;;6.93;;
19543;SDS011;9917;51.256;7.152;2023-02-15T11:08:02;11.75;;;6.55;;
19543;SDS011;9917;51.256;7.152;2023-02-15T11:10:32;12.18;;;6.72;;
19543;SDS011;9917;51.256;7.152;2023-02-15T11:13:05;15.30;;;7.45;;
19543;SDS011;9917;51.256;7.152;2023-02-15T11:15:36;12.88;;;6.20;;
19543;SDS011;9917;51.256;7.152;2023-02-15T11:18:05;11.38;;;6.47;;
19543;SDS011;9917;51.256;7.152;2023-02-15T11:20:37;13.18;;;7.78;;
19543;SDS011;9917;51.256;7.152;2023-02-15T11:23:09;13.85;;;6.82;;
19543;SDS011;9917;51.256;7.152;2023-02-15T11:25:38;12.00;;;7.07;;
19543;SDS011;9917;51.256;7.152;2023-02-15T11:28:09;17.05;;;8.48;;
19543;SDS011;9917;51.256;7.152;2023-02-15T11:30:42;14.63;;;7.75;;
19543;SDS011;9917;51.256;7.152;2023-02-15T11:33:13;14.07;;;6.90;;
19543;SDS011;9917;51.256;7.152;2023-02-15T11:35:46;12.05;;;6.93;;
19543;SDS011;9917;51.256;7.152;2023-02-15T11:38:17;12.38;;;6.85;;
19543;SDS011;9917;51.256;7.152;2023-02-15T11:40:47;11.90;;;6.53;;
19543;SDS011;9917;51.256;7.152;2023-02-15T11:43:16;13.05;;;7.10;;
19543;SDS011;9917;51.256;7.152;2023-02-15T11:45:47;14.68;;;6.90;;
19543;SDS011;9917;51.256;7.152;2023-02-15T11:48:13;15.93;;;7.45;;
19543;SDS011;9917;51.256;7.152;2023-02-15T11:50:40;13.30;;;7.00;;
19543;SDS011;9917;51.256;7.152;2023-02-15T11:53:09;12.98;;;7.03;;
19543;SDS011;9917;51.256;7.152;2023-02-15T11:55:37;18.55;;;8.20;;
19543;SDS011;9917;51.256;7.152;2023-02-15T11:58:04;12.75;;;6.80;;
19543;SDS011;9917;51.256;7.152;2023-02-15T12:00:36;15.38;;;8.10;;
19543;SDS011;9917;51.256;7.152;2023-02-15T12:03:08;13.68;;;7.15;;
19543;SDS011;9917;51.256;7.152;2023-02-15T12:05:39;12.48;;;6.63;;
19543;SDS011;9917;51.256;7.152;2023-02-15T12:08:12;13.88;;;6.82;;
19543;SDS011;9917;51.256;7.152;2023-02-15T12:10:44;14.70;;;7.47;;
19543;SDS011;9917;51.256;7.152;2023-02-15T12:13:18;14.05;;;7.40;;
19543;SDS011;9917;51.256;7.152;2023-02-15T12:15:47;14.85;;;6.93;;
19543;SDS011;9917;51.256;7.152;2023-02-15T12:18:17;13.10;;;7.53;;
19543;SDS011;9917;51.256;7.152;2023-02-15T12:20:45;12.77;;;6.95;;
19543;SDS011;9917;51.256;7.152;2023-02-15T12:23:13;13.73;;;6.95;;
19543;SDS011;9917;51.256;7.152;2023-02-15T12:25:40;12.10;;;6.75;;
19543;SDS011;9917;51.256;7.152;2023-02-15T12:28:16;14.30;;;6.80;;
19543;SDS011;9917;51.256;7.152;2023-02-15T12:30:49;13.20;;;7.10;;
19543;SDS011;9917;51.256;7.152;2023-02-15T12:33:17;12.05;;;6.75;;
19543;SDS011;9917;51.256;7.152;2023-02-15T12:35:54;13.90;;;7.50;;
19543;SDS011;9917;51.256;7.152;2023-02-15T12:38:25;13.05;;;6.70;;
19543;SDS011;9917;51.256;7.152;2023-02-15T12:41:00;14.43;;;7.30;;
19543;SDS011;9917;51.256;7.152;2023-02-15T12:43:29;12.90;;;6.90;;
19543;SDS011;9917;51.256;7.152;2023-02-15T12:49:06;13.57;;;7.10;;
19543;SDS011;9917;51.256;7.152;2023-02-15T12:51:42;15.00;;;7.25;;
19543;SDS011;9917;51.256;7.152;2023-02-15T12:59:56;16.20;;;7.20;;
19543;SDS011;9917;51.256;7.152;2023-02-15T13:02:30;12.68;;;6.35;;
19543;SDS011;9917;51.256;7.152;2023-02-15T13:05:14;14.15;;;7.38;;
19543;SDS011;9917;51.256;7.152;2023-02-15T13:07:45;13.00;;;7.10;;
19543;SDS011;9917;51.256;7.152;2023-02-15T13:10:19;14.65;;;7.70;;
19543;SDS011;9917;51.256;7.152;2023-02-15T13:12:47;17.38;;;7.70;;
19543;SDS011;9917;51.256;7.152;2023-02-15T13:15:22;12.77;;;7.15;;
19543;SDS011;9917;51.256;7.152;2023-02-15T13:17:51;16.45;;;8.05;;
19543;SDS011;9917;51.256;7.152;2023-02-15T13:20:19;14.85;;;7.63;;
19543;SDS011;9917;51.256;7.152;2023-02-15T13:22:46;15.02;;;7.97;;
19543;SDS011;9917;51.256;7.152;2023-02-15T13:25:14;15.52;;;6.70;;
19543;SDS011;9917;51.256;7.152;2023-02-15T13:27:48;15.63;;;7.70;;
19543;SDS011;9917;51.256;7.152;2023-02-15T13:30:22;15.93;;;7.45;;
19543;SDS011;9917;51.256;7.152;2023-02-15T13:32:51;16.92;;;8.57;;
19543;SDS011;9917;51.256;7.152;2023-02-15T13:35:21;14.85;;;7.55;;
19543;SDS011;9917;51.256;7.152;2023-02-15T13:37:52;17.15;;;8.05;;
19543;SDS011;9917;51.256;7.152;2023-02-15T13:40:27;19.45;;;8.20;;
19543;SDS011;9917;51.256;7.152;2023-02-15T13:43:01;17.35;;;8.55;;
19543;SDS011;9917;51.256;7.152;2023-02-15T13:45:38;14.30;;;6.97;;
19543;SDS011;9917;51.256;7.152;2023-02-15T13:48:15;16.30;;;7.35;;
19543;SDS011;9917;51.256;7.152;2023-02-15T13:51:00;17.88;;;7.80;;
19543;SDS011;9917;51.256;7.152;2023-02-15T13:53:39;15.77;;;7.05;;
19543;SDS011;9917;51.256;7.152;2023-02-15T13:56:21;19.30;;;7.85;;
19543;SDS011;9917;51.256;7.152;2023-02-15T13:59:00;17.67;;;7.38;;
19543;SDS011;9917;51.256;7.152;2023-02-15T14:01:37;16.77;;;7.32;;
19543;SDS011;9917;51.256;7.152;2023-02-15T14:04:17;16.25;;;7.20;;
19543;SDS011;9917;51.256;7.152;2023-02-15T14:10:14;15.10;;;6.82;;
19543;SDS011;9917;51.256;7.152;2023-02-15T14:13:01;15.10;;;7.30;;
19543;SDS011;9917;51.256;7.152;2023-02-15T14:15:53;16.73;;;6.95;;
19543;SDS011;9917;51.256;7.152;2023-02-15T14:18:24;14.18;;;7.25;;
19543;SDS011;9917;51.256;7.152;2023-02-15T14:20:57;17.20;;;7.47;;
19543;SDS011;9917;51.256;7.152;2023-02-15T14:23:33;17.67;;;8.15;;
19543;SDS011;9917;51.256;7.152;2023-02-15T14:26:10;14.20;;;6.68;;
19543;SDS011;9917;51.256;7.152;2023-02-15T14:28:43;14.90;;;7.35;;
19543;SDS011;9917;51.256;7.152;2023-02-15T14:31:15;14.88;;;7.38;;
19543;SDS011;9917;51.256;7.152;2023-02-15T14:33:50;19.02;;;8.35;;
19543;SDS011;9917;51.256;7.152;2023-02-15T14:36:20;15.95;;;7.82;;
19543;SDS011;9917;51.256;7.152;2023-02-15T14:38:54;14.02;;;7.32;;
19543;SDS011;9917;51.256;7.152;2023-02-15T14:41:29;14.48;;;6.82;;
19543;SDS011;9917;51.256;7.152;2023-02-15T14:44:04;16.35;;;7.65;;
19543;SDS011;9917;51.256;7.152;2023-02-15T14:46:38;19.67;;;7.80;;
19543;SDS011;9917;51.256;7.152;2023-02-15T14:49:11;17.73;;;7.97;;
19543;SDS011;9917;51.256;7.152;2023-02-15T14:51:55;15.70;;;6.57;;
19543;SDS011;9917;51.256;7.152;2023-02-15T14:57:30;14.27;;;6.88;;
19543;SDS011;9917;51.256;7.152;2023-02-15T14:59:57;12.75;;;6.13;;
19543;SDS011;9917;51.256;7.152;2023-02-15T15:02:25;17.20;;;7.63;;
19543;SDS011;9917;51.256;7.152;2023-02-15T15:05:01;17.75;;;7.13;;
19543;SDS011;9917;51.256;7.152;2023-02-15T15:07:41;19.17;;;7.50;;
19543;SDS011;9917;51.256;7.152;2023-02-15T15:19:08;16.98;;;8.05;;
19543;SDS011;9917;51.256;7.152;2023-02-15T15:39:50;16.50;;;7.65;;
19543;SDS011;9917;51.256;7.152;2023-02-15T15:42:43;17.90;;;8.18;;